createdAt,value
2022-10-23T00:00:24.774Z,0.00
2022-10-23T00:01:24.701Z,0.00
2022-10-23T00:02:24.746Z,0.00
2022-10-23T00:03:24.778Z,0.00
2022-10-23T00:04:24.683Z,0.00
2022-10-23T00:05:24.660Z,0.00
2022-10-23T00:06:24.666Z,0.00
2022-10-23T00:07:24.707Z,0.00
2022-10-23T00:08:24.657Z,0.00
2022-10-23T00:09:24.654Z,0.00
2022-10-23T00:10:24.641Z,0.00
2022-10-23T00:11:24.627Z,0.00
2022-10-23T00:12:24.657Z,0.00
2022-10-23T00:13:24.626Z,0.00
2022-10-23T00:14:24.635Z,0.00
2022-10-23T00:15:24.618Z,0.00
2022-10-23T00:16:24.608Z,0.00
2022-10-23T00:17:24.614Z,0.00
2022-10-23T00:18:24.607Z,0.00
2022-10-23T00:19:24.594Z,0.00
2022-10-23T00:20:24.616Z,0.00
2022-10-23T00:21:24.578Z,0.00
2022-10-23T00:22:24.579Z,0.00
2022-10-23T00:23:24.564Z,0.00
2022-10-23T00:24:24.604Z,0.00
2022-10-23T00:25:24.582Z,0.00
2022-10-23T00:26:24.551Z,0.00
2022-10-23T00:27:24.550Z,0.00
2022-10-23T00:28:24.566Z,0.00
2022-10-23T00:29:24.540Z,0.00
2022-10-23T00:30:24.535Z,0.00
2022-10-23T00:31:24.564Z,0.00
2022-10-23T00:32:24.583Z,0.00
2022-10-23T00:33:24.552Z,0.00
2022-10-23T00:34:24.517Z,0.00
2022-10-23T00:35:24.506Z,0.00
2022-10-23T00:36:24.500Z,0.00
2022-10-23T00:37:24.506Z,0.00
2022-10-23T00:38:24.486Z,0.00
2022-10-23T00:39:24.483Z,0.00
2022-10-23T00:40:24.477Z,0.00
2022-10-23T00:41:24.470Z,0.00
2022-10-23T00:42:24.464Z,0.00
2022-10-23T00:43:24.472Z,0.00
2022-10-23T00:44:24.477Z,0.00
2022-10-23T00:45:24.470Z,0.00
2022-10-23T00:46:24.455Z,0.00
2022-10-23T00:47:24.447Z,0.00
2022-10-23T00:48:24.439Z,0.00
2022-10-23T00:49:24.438Z,0.00
2022-10-23T00:50:24.429Z,0.00
2022-10-23T00:51:24.416Z,0.00
2022-10-23T00:52:24.414Z,0.00
2022-10-23T00:53:24.419Z,0.00
2022-10-23T00:54:25.244Z,0.00
2022-10-23T00:55:24.395Z,0.00
2022-10-23T00:56:24.398Z,0.00
2022-10-23T00:57:24.482Z,0.00
2022-10-23T00:58:24.384Z,0.00
2022-10-23T00:59:24.381Z,0.00
2022-10-23T01:00:24.392Z,0.00
2022-10-23T01:01:24.475Z,0.00
2022-10-23T01:02:24.445Z,0.00
2022-10-23T01:03:24.353Z,0.00
2022-10-23T01:04:24.357Z,0.00
2022-10-23T01:05:24.352Z,0.00
2022-10-23T01:06:24.340Z,0.00
2022-10-23T01:07:24.343Z,0.00
2022-10-23T01:08:24.334Z,0.00
2022-10-23T01:09:24.324Z,0.00
2022-10-23T01:10:24.324Z,0.00
2022-10-23T01:11:24.319Z,0.00
2022-10-23T01:12:24.315Z,0.00
2022-10-23T01:13:24.310Z,0.00
2022-10-23T01:14:24.306Z,0.00
2022-10-23T01:15:24.299Z,0.00
2022-10-23T01:16:24.303Z,0.00
2022-10-23T01:17:24.288Z,0.00
2022-10-23T01:18:24.275Z,0.00
2022-10-23T01:19:24.281Z,0.00
2022-10-23T01:20:24.260Z,0.00
2022-10-23T01:21:24.261Z,0.00
2022-10-23T01:23:24.264Z,0.00
2022-10-23T01:24:24.247Z,0.00
2022-10-23T01:25:24.246Z,0.00
2022-10-23T01:26:24.239Z,0.00
2022-10-23T01:27:24.232Z,0.00
2022-10-23T01:28:24.229Z,0.00
2022-10-23T01:29:24.215Z,0.00
2022-10-23T01:30:24.216Z,0.00
2022-10-23T01:31:24.213Z,0.00
2022-10-23T01:32:24.230Z,0.00
2022-10-23T01:33:24.197Z,0.00
2022-10-23T01:34:24.194Z,0.00
2022-10-23T01:35:24.196Z,0.00
2022-10-23T01:36:24.193Z,0.00
2022-10-23T01:37:24.179Z,0.00
2022-10-23T01:38:24.178Z,0.00
2022-10-23T01:39:24.178Z,0.00
2022-10-23T01:40:24.175Z,0.00
2022-10-23T01:41:24.152Z,0.00
2022-10-23T01:42:24.150Z,0.00
2022-10-23T01:43:24.147Z,0.00
2022-10-23T01:44:24.145Z,0.00
2022-10-23T01:45:24.159Z,0.00
2022-10-23T01:46:24.136Z,0.00
2022-10-23T01:47:26.763Z,0.00
2022-10-23T01:48:24.110Z,0.00
2022-10-23T01:49:24.115Z,0.00
2022-10-23T01:50:24.102Z,0.00
2022-10-23T01:51:24.097Z,0.00
2022-10-23T01:52:24.092Z,0.00
2022-10-23T01:53:26.706Z,0.00
2022-10-23T01:54:24.085Z,0.00
2022-10-23T01:55:24.074Z,0.00
2022-10-23T01:56:24.075Z,0.00
2022-10-23T01:57:24.204Z,0.00
2022-10-23T01:58:24.057Z,0.00
2022-10-23T01:59:24.057Z,0.00
2022-10-23T02:00:24.054Z,0.00
2022-10-23T02:01:24.220Z,0.00
2022-10-23T02:02:24.119Z,0.00
2022-10-23T02:03:24.051Z,0.00
2022-10-23T02:04:24.035Z,0.00
2022-10-23T02:05:24.027Z,0.00
2022-10-23T02:06:24.015Z,0.00
2022-10-23T02:07:24.007Z,0.00
2022-10-23T02:08:24.013Z,0.00
2022-10-23T02:09:24.004Z,0.00
2022-10-23T02:10:23.991Z,0.00
2022-10-23T02:11:23.993Z,0.00
2022-10-23T02:12:24.008Z,0.00
2022-10-23T02:13:23.977Z,0.00
2022-10-23T02:14:23.985Z,0.00
2022-10-23T02:15:23.969Z,0.00
2022-10-23T02:16:23.963Z,0.00
2022-10-23T02:17:23.953Z,0.00
2022-10-23T02:18:23.957Z,0.00
2022-10-23T02:19:23.988Z,0.00
2022-10-23T02:20:23.945Z,0.00
2022-10-23T02:21:23.956Z,0.00
2022-10-23T02:22:23.950Z,0.00
2022-10-23T02:23:23.928Z,0.00
2022-10-23T02:24:23.924Z,0.00
2022-10-23T02:25:23.915Z,0.00
2022-10-23T02:26:23.913Z,0.00
2022-10-23T02:27:24.154Z,0.00
2022-10-23T02:28:23.898Z,0.00
2022-10-23T02:29:23.889Z,0.00
2022-10-23T02:30:23.893Z,0.00
2022-10-23T02:31:23.885Z,0.00
2022-10-23T02:32:23.878Z,0.00
2022-10-23T02:33:23.872Z,0.00
2022-10-23T02:34:23.858Z,0.00
2022-10-23T02:35:23.884Z,0.00
2022-10-23T02:36:23.846Z,0.00
2022-10-23T02:37:23.853Z,0.00
2022-10-23T02:38:23.847Z,0.00
2022-10-23T02:39:23.827Z,0.00
2022-10-23T02:40:23.827Z,0.00
2022-10-23T02:41:23.827Z,0.00
2022-10-23T02:42:23.814Z,0.00
2022-10-23T02:43:23.818Z,0.00
2022-10-23T02:44:23.803Z,0.00
2022-10-23T02:45:23.805Z,0.00
2022-10-23T02:46:23.793Z,0.00
2022-10-23T02:47:23.797Z,0.00
2022-10-23T02:48:23.778Z,0.00
2022-10-23T02:49:23.774Z,0.00
2022-10-23T02:50:23.771Z,0.00
2022-10-23T02:51:23.785Z,0.00
2022-10-23T02:52:23.756Z,0.00
2022-10-23T02:53:23.765Z,0.00
2022-10-23T02:54:23.756Z,0.00
2022-10-23T02:55:23.743Z,0.00
2022-10-23T02:56:23.739Z,0.00
2022-10-23T02:57:23.736Z,0.00
2022-10-23T02:58:23.721Z,0.00
2022-10-23T02:59:23.722Z,0.00
2022-10-23T03:00:23.730Z,0.00
2022-10-23T03:01:23.787Z,0.00
2022-10-23T03:02:23.851Z,0.00
2022-10-23T03:03:23.706Z,0.00
2022-10-23T03:04:23.693Z,0.00
2022-10-23T03:05:23.689Z,0.00
2022-10-23T03:06:23.684Z,0.00
2022-10-23T03:07:23.692Z,0.00
2022-10-23T03:08:23.675Z,0.00
2022-10-23T03:09:23.672Z,0.00
2022-10-23T03:10:23.710Z,0.00
2022-10-23T03:11:23.658Z,0.00
2022-10-23T03:12:23.645Z,0.00
2022-10-23T03:13:23.643Z,0.00
2022-10-23T03:14:23.639Z,0.00
2022-10-23T03:15:23.627Z,0.00
2022-10-23T03:16:23.621Z,0.00
2022-10-23T03:17:23.615Z,0.00
2022-10-23T03:18:23.609Z,0.00
2022-10-23T03:19:23.612Z,0.00
2022-10-23T03:20:23.610Z,0.00
2022-10-23T03:21:23.621Z,0.00
2022-10-23T03:22:23.591Z,0.00
2022-10-23T03:23:23.606Z,0.00
2022-10-23T03:24:23.587Z,0.00
2022-10-23T03:25:23.582Z,0.00
2022-10-23T03:26:23.567Z,0.00
2022-10-23T03:27:23.622Z,0.00
2022-10-23T03:28:23.560Z,0.00
2022-10-23T03:29:23.550Z,0.00
2022-10-23T03:30:23.543Z,0.00
2022-10-23T03:31:23.538Z,0.00
2022-10-23T03:32:23.535Z,0.00
2022-10-23T03:33:23.531Z,0.00
2022-10-23T03:34:23.526Z,0.00
2022-10-23T03:35:23.525Z,0.00
2022-10-23T03:36:23.520Z,0.00
2022-10-23T03:37:23.524Z,0.00
2022-10-23T03:38:23.497Z,0.00
2022-10-23T03:39:23.510Z,0.00
2022-10-23T03:40:23.505Z,0.00
2022-10-23T03:41:23.481Z,0.00
2022-10-23T03:42:23.487Z,0.00
2022-10-23T03:43:23.478Z,0.00
2022-10-23T03:44:23.476Z,0.00
2022-10-23T03:45:23.482Z,0.00
2022-10-23T03:46:23.475Z,0.00
2022-10-23T03:47:23.447Z,0.00
2022-10-23T03:48:23.448Z,0.00
2022-10-23T03:49:23.442Z,0.00
2022-10-23T03:50:23.441Z,0.00
2022-10-23T03:51:23.428Z,0.00
2022-10-23T03:53:23.417Z,0.00
2022-10-23T03:54:23.419Z,0.00
2022-10-23T03:55:23.421Z,0.00
2022-10-23T03:56:23.398Z,0.00
2022-10-23T03:57:23.393Z,0.00
2022-10-23T03:58:23.387Z,0.00
2022-10-23T03:59:23.386Z,0.00
2022-10-23T04:00:23.393Z,0.00
2022-10-23T04:01:23.439Z,0.00
2022-10-23T04:02:23.487Z,0.00
2022-10-23T04:03:23.364Z,0.00
2022-10-23T04:04:23.351Z,0.00
2022-10-23T04:05:23.352Z,0.00
2022-10-23T04:06:23.339Z,0.00
2022-10-23T04:07:23.345Z,0.00
2022-10-23T04:08:23.336Z,0.00
2022-10-23T04:09:23.332Z,0.00
2022-10-23T04:10:23.333Z,0.00
2022-10-23T04:11:23.344Z,0.00
2022-10-23T04:12:23.312Z,0.00
2022-10-23T04:13:23.317Z,0.00
2022-10-23T04:14:23.294Z,0.00
2022-10-23T04:15:23.295Z,0.00
2022-10-23T04:16:23.295Z,0.00
2022-10-23T04:17:23.325Z,0.00
2022-10-23T04:18:23.280Z,0.00
2022-10-23T04:19:23.266Z,0.00
2022-10-23T04:20:23.285Z,0.00
2022-10-23T04:21:23.263Z,0.00
2022-10-23T04:22:25.949Z,0.00
2022-10-23T04:23:23.252Z,0.00
2022-10-23T04:24:23.244Z,0.00
2022-10-23T04:25:23.244Z,0.00
2022-10-23T04:26:23.234Z,0.00
2022-10-23T04:27:23.243Z,0.00
2022-10-23T04:28:23.230Z,0.00
2022-10-23T04:29:23.223Z,0.00
2022-10-23T04:30:23.213Z,0.00
2022-10-23T04:31:23.211Z,0.00
2022-10-23T04:32:23.204Z,0.00
2022-10-23T04:33:23.190Z,0.00
2022-10-23T04:34:23.191Z,0.00
2022-10-23T04:35:23.182Z,0.00
2022-10-23T04:36:23.186Z,0.00
2022-10-23T04:37:23.172Z,0.00
2022-10-23T04:38:23.161Z,0.00
2022-10-23T04:39:23.164Z,0.00
2022-10-23T04:40:23.168Z,0.00
2022-10-23T04:41:23.151Z,0.00
2022-10-23T04:42:23.205Z,0.00
2022-10-23T04:43:23.166Z,0.00
2022-10-23T04:44:23.143Z,0.00
2022-10-23T04:45:23.153Z,0.00
2022-10-23T04:46:23.130Z,0.00
2022-10-23T04:47:23.112Z,0.00
2022-10-23T04:48:25.585Z,0.00
2022-10-23T04:49:23.109Z,0.00
2022-10-23T04:50:23.117Z,0.00
2022-10-23T04:51:23.091Z,0.00
2022-10-23T04:52:23.099Z,0.00
2022-10-23T04:53:23.091Z,0.00
2022-10-23T04:54:23.098Z,0.00
2022-10-23T04:55:23.070Z,0.00
2022-10-23T04:56:23.077Z,0.00
2022-10-23T04:57:23.064Z,0.00
2022-10-23T04:58:23.068Z,0.00
2022-10-23T04:59:23.069Z,0.00
2022-10-23T05:00:23.047Z,0.00
2022-10-23T05:01:23.126Z,0.00
2022-10-23T05:02:23.058Z,0.00
2022-10-23T05:03:23.030Z,0.00
2022-10-23T05:04:23.029Z,0.00
2022-10-23T05:05:23.029Z,0.00
2022-10-23T05:06:23.029Z,0.00
2022-10-23T05:07:23.078Z,0.00
2022-10-23T05:08:23.012Z,0.00
2022-10-23T05:09:23.013Z,0.00
2022-10-23T05:10:23.001Z,0.00
2022-10-23T05:11:22.993Z,0.00
2022-10-23T05:12:22.983Z,0.00
2022-10-23T05:13:22.995Z,0.00
2022-10-23T05:14:23.077Z,0.00
2022-10-23T05:15:22.984Z,0.00
2022-10-23T05:16:22.974Z,0.00
2022-10-23T05:17:22.973Z,0.00
2022-10-23T05:18:22.950Z,0.00
2022-10-23T05:19:24.337Z,0.00
2022-10-23T05:20:22.934Z,0.00
2022-10-23T05:21:22.949Z,0.00
2022-10-23T05:22:22.927Z,0.00
2022-10-23T05:23:22.933Z,0.00
2022-10-23T05:24:22.915Z,0.00
2022-10-23T05:25:22.908Z,0.00
2022-10-23T05:26:22.910Z,0.00
2022-10-23T05:27:22.894Z,0.00
2022-10-23T05:28:22.891Z,0.00
2022-10-23T05:29:22.890Z,0.00
2022-10-23T05:30:22.884Z,0.00
2022-10-23T05:31:22.895Z,0.00
2022-10-23T05:32:22.890Z,0.00
2022-10-23T05:33:22.867Z,0.00
2022-10-23T05:34:22.864Z,0.00
2022-10-23T05:35:22.871Z,0.00
2022-10-23T05:36:22.850Z,0.00
2022-10-23T05:37:22.836Z,0.00
2022-10-23T05:38:22.841Z,0.00
2022-10-23T05:39:22.835Z,0.00
2022-10-23T05:40:22.829Z,0.00
2022-10-23T05:41:22.821Z,0.00
2022-10-23T05:42:22.824Z,0.00
2022-10-23T05:43:22.803Z,0.00
2022-10-23T05:44:22.805Z,0.00
2022-10-23T05:45:22.819Z,0.00
2022-10-23T05:46:22.797Z,0.00
2022-10-23T05:47:22.819Z,0.00
2022-10-23T05:48:33.881Z,0.00
2022-10-23T05:49:22.778Z,0.00
2022-10-23T05:50:22.766Z,0.00
2022-10-23T05:51:22.769Z,0.00
2022-10-23T05:52:22.763Z,0.00
2022-10-23T05:53:22.747Z,0.00
2022-10-23T05:54:22.746Z,0.00
2022-10-23T05:55:22.738Z,0.00
2022-10-23T05:56:22.742Z,4.00
2022-10-23T05:57:22.730Z,4.00
2022-10-23T05:58:22.723Z,4.00
2022-10-23T05:59:23.280Z,4.00
2022-10-23T06:00:22.725Z,0.00
2022-10-23T06:01:22.775Z,0.00
2022-10-23T06:02:22.787Z,4.00
2022-10-23T06:03:22.725Z,4.00
2022-10-23T06:04:22.689Z,4.00
2022-10-23T06:05:22.700Z,8.00
2022-10-23T06:06:22.676Z,4.00
2022-10-23T06:07:22.680Z,8.00
2022-10-23T06:08:22.664Z,4.00
2022-10-23T06:09:22.659Z,4.00
2022-10-23T06:10:22.659Z,8.00
2022-10-23T06:11:22.660Z,8.00
2022-10-23T06:12:22.653Z,8.00
2022-10-23T06:13:22.645Z,12.00
2022-10-23T06:14:22.639Z,8.00
2022-10-23T06:15:22.633Z,8.00
2022-10-23T06:16:22.632Z,8.00
2022-10-23T06:17:22.635Z,12.00
2022-10-23T06:18:22.619Z,12.00
2022-10-23T06:19:22.632Z,16.00
2022-10-23T06:20:26.587Z,16.00
2022-10-23T06:21:22.600Z,20.00
2022-10-23T06:22:22.596Z,24.00
2022-10-23T06:23:22.588Z,24.00
2022-10-23T06:24:22.588Z,24.00
2022-10-23T06:25:22.576Z,28.00
2022-10-23T06:26:22.564Z,36.00
2022-10-23T06:27:22.567Z,36.00
2022-10-23T06:28:22.560Z,36.00
2022-10-23T06:29:22.561Z,40.00
2022-10-23T06:30:22.549Z,44.00
2022-10-23T06:31:22.537Z,48.00
2022-10-23T06:32:22.544Z,52.00
2022-10-23T06:33:22.541Z,52.00
2022-10-23T06:34:22.520Z,60.00
2022-10-23T06:35:22.543Z,64.00
2022-10-23T06:36:22.527Z,68.00
2022-10-23T06:37:22.512Z,64.00
2022-10-23T06:38:22.509Z,68.00
2022-10-23T06:39:22.494Z,64.00
2022-10-23T06:40:22.495Z,64.00
2022-10-23T06:41:22.507Z,68.00
2022-10-23T06:42:22.475Z,72.00
2022-10-23T06:43:22.473Z,80.00
2022-10-23T06:44:22.472Z,92.00
2022-10-23T06:45:22.495Z,100.00
2022-10-23T06:46:22.467Z,104.00
2022-10-23T06:47:22.456Z,108.00
2022-10-23T06:48:22.449Z,104.00
2022-10-23T06:49:22.439Z,96.00
2022-10-23T06:50:22.446Z,92.00
2022-10-23T06:51:22.444Z,84.00
2022-10-23T06:52:45.267Z,76.00
2022-10-23T06:53:22.426Z,72.00
2022-10-23T06:54:22.425Z,68.00
2022-10-23T06:55:22.411Z,68.00
2022-10-23T06:56:22.407Z,68.00
2022-10-23T06:57:22.404Z,72.00
2022-10-23T06:58:22.400Z,72.00
2022-10-23T06:59:22.391Z,72.00
2022-10-23T07:00:22.385Z,76.00
2022-10-23T07:01:22.617Z,76.00
2022-10-23T07:02:22.372Z,80.00
2022-10-23T07:03:22.364Z,76.00
2022-10-23T07:04:22.371Z,76.00
2022-10-23T07:05:22.355Z,72.00
2022-10-23T07:06:22.354Z,76.00
2022-10-23T07:07:22.368Z,72.00
2022-10-23T07:08:22.342Z,76.00
2022-10-23T07:09:22.335Z,84.00
2022-10-23T07:10:22.333Z,88.00
2022-10-23T07:11:22.327Z,92.00
2022-10-23T07:12:22.321Z,96.00
2022-10-23T07:13:22.323Z,96.00
2022-10-23T07:14:22.312Z,96.00
2022-10-23T07:15:22.310Z,100.00
2022-10-23T07:16:22.304Z,100.00
2022-10-23T07:17:22.313Z,104.00
2022-10-23T07:18:22.326Z,112.00
2022-10-23T07:19:22.310Z,120.00
2022-10-23T07:20:22.299Z,124.00
2022-10-23T07:21:22.287Z,128.00
2022-10-23T07:22:22.285Z,136.00
2022-10-23T07:23:22.300Z,144.00
2022-10-23T07:24:22.275Z,144.00
2022-10-23T07:25:22.270Z,148.00
2022-10-23T07:26:22.265Z,152.00
2022-10-23T07:27:22.266Z,156.00
2022-10-23T07:28:22.259Z,164.00
2022-10-23T07:29:22.264Z,164.00
2022-10-23T07:30:22.272Z,172.00
2022-10-23T07:31:25.626Z,176.00
2022-10-23T07:32:22.250Z,180.00
2022-10-23T07:33:22.246Z,180.00
2022-10-23T07:34:22.234Z,176.00
2022-10-23T07:35:22.243Z,176.00
2022-10-23T07:36:22.229Z,176.00
2022-10-23T07:37:22.228Z,172.00
2022-10-23T07:38:22.231Z,176.00
2022-10-23T07:39:22.241Z,176.00
2022-10-23T07:40:22.224Z,176.00
2022-10-23T07:41:22.217Z,176.00
2022-10-23T07:42:22.211Z,176.00
2022-10-23T07:43:22.299Z,176.00
2022-10-23T07:44:24.372Z,176.00
2022-10-23T07:45:22.205Z,176.00
2022-10-23T07:46:22.202Z,176.00
2022-10-23T07:47:22.195Z,172.00
2022-10-23T07:48:22.204Z,168.00
2022-10-23T07:49:22.208Z,168.00
2022-10-23T07:50:22.189Z,160.00
2022-10-23T07:51:22.190Z,160.00
2022-10-23T07:52:22.189Z,152.00
2022-10-23T07:53:22.176Z,160.00
2022-10-23T07:54:22.183Z,148.00
2022-10-23T07:55:22.198Z,156.00
2022-10-23T07:56:22.175Z,164.00
2022-10-23T07:57:22.167Z,164.00
2022-10-23T07:58:22.179Z,164.00
2022-10-23T07:59:22.167Z,160.00
2022-10-23T08:00:22.170Z,160.00
2022-10-23T08:01:22.201Z,160.00
2022-10-23T08:02:22.302Z,156.00
2022-10-23T08:03:22.155Z,152.00
2022-10-23T08:04:22.155Z,152.00
2022-10-23T08:05:22.153Z,152.00
2022-10-23T08:06:22.164Z,164.00
2022-10-23T08:07:22.163Z,164.00
2022-10-23T08:08:22.146Z,156.00
2022-10-23T08:09:22.141Z,140.00
2022-10-23T08:10:22.152Z,136.00
2022-10-23T08:11:22.151Z,132.00
2022-10-23T08:12:22.140Z,128.00
2022-10-23T08:13:22.144Z,132.00
2022-10-23T08:14:22.130Z,136.00
2022-10-23T08:15:22.132Z,136.00
2022-10-23T08:16:22.125Z,132.00
2022-10-23T08:17:24.027Z,128.00
2022-10-23T08:18:22.130Z,124.00
2022-10-23T08:19:22.129Z,128.00
2022-10-23T08:20:22.122Z,132.00
2022-10-23T08:21:22.129Z,136.00
2022-10-23T08:22:22.113Z,140.00
2022-10-23T08:23:22.115Z,148.00
2022-10-23T08:24:22.117Z,160.00
2022-10-23T08:25:24.935Z,180.00
2022-10-23T08:26:22.104Z,196.00
2022-10-23T08:27:22.137Z,200.00
2022-10-23T08:28:22.106Z,204.00
2022-10-23T08:29:22.107Z,196.00
2022-10-23T08:30:22.236Z,188.00
2022-10-23T08:31:22.101Z,184.00
2022-10-23T08:32:22.098Z,176.00
2022-10-23T08:33:22.101Z,176.00
2022-10-23T08:34:22.097Z,184.00
2022-10-23T08:35:22.146Z,184.00
2022-10-23T08:36:22.110Z,188.00
2022-10-23T08:37:22.221Z,196.00
2022-10-23T08:38:22.093Z,208.00
2022-10-23T08:39:22.090Z,224.00
2022-10-23T08:40:22.195Z,236.00
2022-10-23T08:41:22.093Z,248.00
2022-10-23T08:42:22.093Z,252.00
2022-10-23T08:43:22.100Z,244.00
2022-10-23T08:44:22.110Z,240.00
2022-10-23T08:45:22.108Z,240.00
2022-10-23T08:46:22.082Z,244.00
2022-10-23T08:47:22.149Z,248.00
2022-10-23T08:48:22.072Z,252.00
2022-10-23T08:49:22.074Z,240.00
2022-10-23T08:50:22.190Z,256.00
2022-10-23T08:51:22.078Z,260.00
2022-10-23T08:52:22.093Z,252.00
2022-10-23T08:53:22.073Z,264.00
2022-10-23T08:54:22.077Z,264.00
2022-10-23T08:55:22.074Z,320.00
2022-10-23T08:56:22.060Z,316.00
2022-10-23T08:57:22.058Z,316.00
2022-10-23T08:58:22.060Z,312.00
2022-10-23T08:59:22.080Z,312.00
2022-10-23T09:00:22.058Z,308.00
2022-10-23T09:01:22.221Z,316.00
2022-10-23T09:02:22.204Z,316.00
2022-10-23T09:03:22.053Z,324.00
2022-10-23T09:04:22.063Z,324.00
2022-10-23T09:05:22.060Z,328.00
2022-10-23T09:06:22.047Z,324.00
2022-10-23T09:07:22.061Z,312.00
2022-10-23T09:08:22.044Z,300.00
2022-10-23T09:09:22.035Z,292.00
2022-10-23T09:10:22.036Z,284.00
2022-10-23T09:11:22.047Z,288.00
2022-10-23T09:12:22.042Z,292.00
2022-10-23T09:13:22.036Z,304.00
2022-10-23T09:14:22.031Z,308.00
2022-10-23T09:15:22.039Z,312.00
2022-10-23T09:16:22.030Z,320.00
2022-10-23T09:17:22.013Z,324.00
2022-10-23T09:18:22.039Z,316.00
2022-10-23T09:19:22.018Z,304.00
2022-10-23T09:20:22.009Z,292.00
2022-10-23T09:21:22.017Z,292.00
2022-10-23T09:22:22.015Z,284.00
2022-10-23T09:23:22.007Z,296.00
2022-10-23T09:24:22.012Z,300.00
2022-10-23T09:25:22.008Z,304.00
2022-10-23T09:26:22.002Z,300.00
2022-10-23T09:27:21.990Z,304.00
2022-10-23T09:28:21.993Z,308.00
2022-10-23T09:29:21.995Z,312.00
2022-10-23T09:30:21.992Z,320.00
2022-10-23T09:31:22.001Z,328.00
2022-10-23T09:32:21.987Z,328.00
2022-10-23T09:33:21.983Z,332.00
2022-10-23T09:34:21.990Z,328.00
2022-10-23T09:35:21.987Z,332.00
2022-10-23T09:36:21.982Z,328.00
2022-10-23T09:37:21.969Z,324.00
2022-10-23T09:38:21.972Z,320.00
2022-10-23T09:39:21.966Z,320.00
2022-10-23T09:40:21.956Z,324.00
2022-10-23T09:41:21.954Z,332.00
2022-10-23T09:42:21.955Z,336.00
2022-10-23T09:43:21.954Z,344.00
2022-10-23T09:44:21.946Z,352.00
2022-10-23T09:45:21.968Z,364.00
2022-10-23T09:46:21.953Z,364.00
2022-10-23T09:47:21.974Z,360.00
2022-10-23T09:48:21.938Z,352.00
2022-10-23T09:49:21.943Z,352.00
2022-10-23T09:50:21.955Z,360.00
2022-10-23T09:51:21.939Z,368.00
2022-10-23T09:52:21.926Z,372.00
2022-10-23T09:53:21.923Z,380.00
2022-10-23T09:54:21.932Z,380.00
2022-10-23T09:55:21.923Z,388.00
2022-10-23T09:56:24.640Z,396.00
2022-10-23T09:57:21.923Z,408.00
2022-10-23T09:58:21.917Z,400.00
2022-10-23T09:59:21.917Z,412.00
2022-10-23T10:00:21.919Z,424.00
2022-10-23T10:01:22.030Z,448.00
2022-10-23T10:02:21.951Z,464.00
2022-10-23T10:03:21.923Z,484.00
2022-10-23T10:04:21.902Z,488.00
2022-10-23T10:05:21.893Z,512.00
2022-10-23T10:06:21.900Z,520.00
2022-10-23T10:07:21.893Z,524.00
2022-10-23T10:08:21.893Z,528.00
2022-10-23T10:09:21.898Z,524.00
2022-10-23T10:10:21.891Z,512.00
2022-10-23T10:11:21.883Z,516.00
2022-10-23T10:12:21.875Z,512.00
2022-10-23T10:13:21.877Z,508.00
2022-10-23T10:14:21.875Z,504.00
2022-10-23T10:15:21.867Z,484.00
2022-10-23T10:16:21.872Z,464.00
2022-10-23T10:17:21.866Z,476.00
2022-10-23T10:18:21.862Z,468.00
2022-10-23T10:19:21.887Z,464.00
2022-10-23T10:20:21.861Z,456.00
2022-10-23T10:21:21.861Z,444.00
2022-10-23T10:22:21.852Z,432.00
2022-10-23T10:23:21.882Z,416.00
2022-10-23T10:24:21.841Z,404.00
2022-10-23T10:25:21.845Z,400.00
2022-10-23T10:26:21.859Z,388.00
2022-10-23T10:27:21.844Z,380.00
2022-10-23T10:28:21.855Z,380.00
2022-10-23T10:29:21.840Z,384.00
2022-10-23T10:30:21.836Z,404.00
2022-10-23T10:31:21.824Z,432.00
2022-10-23T10:32:21.834Z,436.00
2022-10-23T10:33:21.825Z,444.00
2022-10-23T10:34:21.827Z,440.00
2022-10-23T10:35:21.840Z,444.00
2022-10-23T10:36:21.888Z,444.00
2022-10-23T10:37:21.810Z,428.00
2022-10-23T10:38:21.815Z,404.00
2022-10-23T10:39:21.811Z,312.00
2022-10-23T10:40:21.802Z,308.00
2022-10-23T10:41:21.809Z,288.00
2022-10-23T10:42:21.818Z,260.00
2022-10-23T10:43:21.790Z,244.00
2022-10-23T10:44:21.794Z,228.00
2022-10-23T10:45:21.817Z,232.00
2022-10-23T10:46:21.787Z,224.00
2022-10-23T10:47:21.787Z,220.00
2022-10-23T10:48:21.781Z,228.00
2022-10-23T10:49:21.801Z,252.00
2022-10-23T10:50:21.781Z,280.00
2022-10-23T10:51:21.789Z,312.00
2022-10-23T10:52:21.771Z,312.00
2022-10-23T10:53:21.775Z,296.00
2022-10-23T10:54:21.775Z,276.00
2022-10-23T10:55:21.769Z,260.00
2022-10-23T10:56:21.758Z,260.00
2022-10-23T10:57:21.769Z,288.00
2022-10-23T10:58:21.756Z,284.00
2022-10-23T10:59:21.758Z,256.00
2022-10-23T11:00:21.754Z,264.00
2022-10-23T11:01:21.825Z,272.00
2022-10-23T11:02:21.813Z,276.00
2022-10-23T11:03:21.754Z,284.00
2022-10-23T11:04:21.744Z,296.00
2022-10-23T11:05:21.736Z,316.00
2022-10-23T11:06:21.739Z,320.00
2022-10-23T11:07:21.747Z,320.00
2022-10-23T11:08:21.723Z,300.00
2022-10-23T11:09:21.739Z,276.00
2022-10-23T11:10:21.729Z,276.00
2022-10-23T11:11:21.727Z,272.00
2022-10-23T11:12:21.724Z,280.00
2022-10-23T11:13:21.714Z,268.00
2022-10-23T11:14:21.717Z,232.00
2022-10-23T11:15:21.727Z,188.00
2022-10-23T11:16:21.706Z,156.00
2022-10-23T11:17:21.702Z,136.00
2022-10-23T11:18:21.707Z,120.00
2022-10-23T11:19:21.698Z,108.00
2022-10-23T11:20:21.697Z,100.00
2022-10-23T11:21:21.705Z,104.00
2022-10-23T11:22:21.694Z,116.00
2022-10-23T11:23:21.708Z,144.00
2022-10-23T11:24:21.684Z,196.00
2022-10-23T11:25:21.696Z,252.00
2022-10-23T11:26:21.680Z,264.00
2022-10-23T11:27:21.677Z,228.00
2022-10-23T11:28:21.667Z,196.00
2022-10-23T11:29:21.754Z,172.00
2022-10-23T11:30:21.673Z,168.00
2022-10-23T11:31:21.659Z,160.00
2022-10-23T11:32:21.730Z,168.00
2022-10-23T11:33:21.654Z,196.00
2022-10-23T11:34:21.649Z,240.00
2022-10-23T11:35:21.727Z,244.00
2022-10-23T11:36:21.675Z,280.00
2022-10-23T11:37:21.653Z,316.00
2022-10-23T11:38:21.642Z,288.00
2022-10-23T11:39:21.730Z,252.00
2022-10-23T11:40:21.642Z,228.00
2022-10-23T11:41:25.375Z,208.00
2022-10-23T11:42:21.629Z,224.00
2022-10-23T11:43:21.639Z,228.00
2022-10-23T11:44:21.620Z,260.00
2022-10-23T11:45:21.699Z,268.00
2022-10-23T11:46:21.621Z,304.00
2022-10-23T11:47:21.619Z,332.00
2022-10-23T11:48:21.617Z,352.00
2022-10-23T11:49:21.615Z,384.00
2022-10-23T11:50:21.632Z,392.00
2022-10-23T11:51:21.613Z,392.00
2022-10-23T11:52:21.602Z,384.00
2022-10-23T11:53:22.053Z,372.00
2022-10-23T11:54:21.602Z,368.00
2022-10-23T11:55:21.622Z,352.00
2022-10-23T11:56:21.604Z,332.00
2022-10-23T11:57:21.620Z,332.00
2022-10-23T11:58:21.590Z,320.00
2022-10-23T11:59:21.589Z,316.00
2022-10-23T12:00:21.590Z,300.00
2022-10-23T12:01:21.609Z,288.00
2022-10-23T12:02:21.649Z,292.00
2022-10-23T12:03:21.567Z,280.00
2022-10-23T12:04:21.577Z,276.00
2022-10-23T12:05:21.563Z,276.00
2022-10-23T12:06:21.569Z,276.00
2022-10-23T12:07:21.567Z,276.00
2022-10-23T12:08:21.560Z,284.00
2022-10-23T12:09:21.599Z,276.00
2022-10-23T12:10:21.591Z,260.00
2022-10-23T12:11:25.462Z,264.00
2022-10-23T12:12:21.547Z,268.00
2022-10-23T12:13:21.616Z,268.00
2022-10-23T12:14:21.541Z,280.00
2022-10-23T12:15:21.541Z,284.00
2022-10-23T12:16:21.542Z,292.00
2022-10-23T12:17:21.574Z,300.00
2022-10-23T12:18:21.530Z,304.00
2022-10-23T12:19:21.527Z,312.00
2022-10-23T12:20:21.533Z,320.00
2022-10-23T12:21:21.519Z,312.00
2022-10-23T12:22:21.566Z,316.00
2022-10-23T12:23:21.518Z,308.00
2022-10-23T12:24:21.515Z,304.00
2022-10-23T12:25:21.508Z,292.00
2022-10-23T12:26:21.513Z,284.00
2022-10-23T12:27:21.530Z,276.00
2022-10-23T12:28:21.582Z,264.00
2022-10-23T12:29:21.511Z,272.00
2022-10-23T12:30:21.530Z,272.00
2022-10-23T12:31:21.534Z,280.00
2022-10-23T12:32:21.493Z,280.00
2022-10-23T12:33:21.509Z,284.00
2022-10-23T12:34:21.523Z,280.00
2022-10-23T12:35:21.556Z,280.00
2022-10-23T12:36:21.479Z,280.00
2022-10-23T12:37:21.478Z,280.00
2022-10-23T12:38:21.471Z,284.00
2022-10-23T12:39:21.483Z,292.00
2022-10-23T12:40:21.467Z,296.00
2022-10-23T12:41:21.480Z,300.00
2022-10-23T12:42:21.464Z,304.00
2022-10-23T12:43:21.497Z,308.00
2022-10-23T12:44:21.462Z,312.00
2022-10-23T12:45:21.456Z,300.00
2022-10-23T12:46:21.461Z,296.00
2022-10-23T12:47:21.458Z,304.00
2022-10-23T12:48:21.447Z,312.00
2022-10-23T12:49:21.446Z,308.00
2022-10-23T12:50:21.444Z,312.00
2022-10-23T12:51:21.449Z,308.00
2022-10-23T12:52:21.441Z,300.00
2022-10-23T12:53:21.435Z,296.00
2022-10-23T12:54:21.438Z,292.00
2022-10-23T12:55:21.432Z,292.00